• Join FlightAware (Why Join?)
  • Login
  • US Flag 
03:20PM EDT


 

Airport Tracker/Info


-or-


 

Live Flight TrackerFlight Track Log ✈ UAL3595 ✈ 27-Dec-2013 ✈ KBUF - KIAD

Flight Track Log - Related Links

Times and Time Zones

All times are in EST time to prevent confusion due to time zone crossing. See the UAL3595 flight status page for this flight to view local times or setup timezone preferences in your user account.

Time Position Orientation Groundspeed Altitude Reporting Facility
EST Latitude Longitude Course Direction KTS MPH feet Rate Location/Type
11:32AM 42.9333 -78.7333 180° South 133 153 1,400  Level Buffalo TRACON
11:33AM 42.9000 -78.7667 216° Southwest 137 158 2,900 1,500 Climbing Buffalo TRACON
11:34AM 42.8667 -78.7667 180° South 170 196 4,500 1,620 Climbing Buffalo TRACON
11:35AM 42.8306 -78.7644 177° South 165 190 5,600 1,380 Climbing Cleveland Center
11:36AM 42.7808 -78.7539 171° South 171 197 7,000 1,320 Climbing Cleveland Center
11:37AM 42.5316 -78.5929 180° South  Level Estimated
11:37AM 42.7253 -78.7436 172° South 193 222 8,400  Level Cleveland Center
11:38AM 42.6678 -78.7319 172° South 213 245 9,500 960 Climbing Cleveland Center
11:39AM 42.6056 -78.7197 172° South 224 258 10,500 1,020 Climbing Cleveland Center
11:40AM 42.5419 -78.7069 172° South 233 268 11,700 1,140 Climbing Cleveland Center
11:41AM 42.4781 -78.6928 171° South 234 269 12,900 1,020 Climbing Cleveland Center
11:42AM 42.4131 -78.6825 173° South 235 270 13,900 1,200 Climbing Cleveland Center
11:43AM 42.3322 -78.6653 171° South 242 278 15,500 1,260 Climbing Cleveland Center
11:44AM 42.2661 -78.6525 172° South 241 277 16,600 720 Climbing Cleveland Center
11:45AM 42.1969 -78.6414 173° South 248 285 17,000 180 Climbing Cleveland Center
11:46AM 42.1189 -78.6264 172° South 271 312 17,000  Level Cleveland Center
11:47AM 42.0375 -78.6272 180° South 289 333 17,000  Level Cleveland Center
11:48AM 41.9422 -78.6244 179° South 288 331 17,000  Level Cleveland Center
11:49AM 41.8625 -78.6222 179° South 287 330 17,000  Level Cleveland Center
11:50AM 41.7839 -78.6200 179° South 285 328 17,000  Level Cleveland Center
11:51AM 41.7103 -78.5658 151° Southeast 304 350 17,000  Level Cleveland Center
11:52AM 41.6347 -78.5092 151° Southeast 310 357 17,000 -300 Level Cleveland Center
11:53AM 41.5600 -78.4553 152° Southeast 306 352 16,500 -600 Descending Cleveland Center
11:54AM 41.4811 -78.3986 152° Southeast 314 361 15,800 -780 Descending Cleveland Center
11:55AM 41.3844 -78.3275 151° Southeast 327 376 15,000 -420 Descending Cleveland Center
11:56AM 41.3133 -78.2772 152° Southeast 328 377 15,000  Level Cleveland Center
11:57AM 41.2217 -78.2111 152° Southeast 330 380 15,100  Climbing New York Center
11:58AM 41.1456 -78.1586 153° Southeast 325 374 15,000 -120 Descending New York Center
11:59AM 41.0769 -78.1075 151° Southeast 305 351 14,900 -60 Descending Cleveland Center
12:00PM 41.0022 -78.0544 152° Southeast 304 350 14,900  Level Cleveland Center
12:01PM 40.9275 -78.0017 152° Southeast 305 351 14,900  Level Cleveland Center
12:03PM 40.8369 -77.9436 154° Southeast 302 348 14,900  Level Cleveland Center
12:04PM 40.7611 -77.8964 155° Southeast 301 346 14,900  Level Cleveland Center
12:04PM 40.6972 -77.8556 154° Southeast 309 356 14,900  Level New York Center
12:05PM 40.6228 -77.8094 155° Southeast 309 356 14,900  Level New York Center
12:06PM 40.5486 -77.7608 154° Southeast 303 349 14,900  Level New York Center
12:07PM 40.4719 -77.7150 156° South 303 349 14,900  Level New York Center
12:08PM 40.3997 -77.6667 153° Southeast 303 349 14,900  Level New York Center
12:09PM 40.3175 -77.6150 154° Southeast 303 349 15,000  Climbing New York Center
12:10PM 40.2508 -77.5758 156° South 303 349 15,000 -420 Level New York Center
12:11PM 40.1703 -77.5244 154° Southeast 292 336 14,200 -960 Descending New York Center
12:12PM 40.0936 -77.4789 156° South 297 342 13,100 -1,020 Descending New York Center
12:15PM 39.9000 -77.3500 186° South 306 352 10,600 -960 Descending Potomac TRACON
12:17PM 39.8086 -77.2936 155° Southeast  Level FlightAware Approximate
12:17PM 39.7500 -77.4000 155° Southeast 249 287 8,600  Level Potomac TRACON
12:18PM 39.6833 -77.4000 180° South 255 293 7,500 -1,080 Descending Potomac TRACON
12:19PM 39.6167 -77.4000 180° South 252 290 6,500 -1,080 Descending Potomac TRACON
12:20PM 39.5500 -77.4167 191° South 225 259 5,400 -1,080 Descending Potomac TRACON
12:21PM 39.5511 -77.3427 186° South  Level FlightAware Approximate
12:21PM 39.4833 -77.4333 191° South 230 265 4,400  Level Potomac TRACON
12:22PM 39.4167 -77.4167 169° South 219 252 4,000 -180 Descending Potomac TRACON
12:24PM 39.3000 -77.4500 192° South 234 269 4,000  Level Potomac TRACON
12:25PM 39.2333 -77.4500 180° South 242 278 4,000 -60 Level Potomac TRACON
12:26PM 39.1667 -77.4500 180° South 242 278 3,900 -660 Descending Potomac TRACON
12:27PM 39.1000 -77.4500 180° South 234 269 2,700 -1,140 Descending Potomac TRACON
12:28PM 39.0500 -77.4667 195° South 180 207 1,800 -900 Descending Potomac TRACON
12:29PM 39.0000 -77.4667 180° South 135 155 900 -840 Descending Potomac TRACON